createdAt,value
2023-03-25T00:03:53.511Z,1.02
2023-03-25T00:14:17.221Z,1.30
2023-03-25T00:24:38.386Z,1.20
2023-03-25T00:35:00.290Z,1.35
2023-03-25T00:45:21.660Z,1.00
2023-03-25T00:55:42.937Z,1.30
2023-03-25T01:06:04.704Z,0.90
2023-03-25T01:16:26.346Z,1.20
2023-03-25T01:26:47.969Z,1.20
2023-03-25T01:37:10.295Z,1.27
2023-03-25T01:47:33.604Z,1.30
2023-03-25T01:57:57.290Z,1.00
2023-03-25T02:08:19.387Z,1.63
2023-03-25T02:18:46.781Z,1.15
2023-03-25T02:29:17.601Z,1.10
2023-03-25T02:40:14.863Z,1.42
2023-03-25T02:50:44.184Z,1.43
2023-03-25T03:01:05.848Z,1.17
2023-03-25T03:11:53.804Z,1.20
2023-03-25T03:22:27.085Z,1.30
2023-03-25T03:33:26.753Z,1.23
2023-03-25T03:44:09.309Z,1.20
2023-03-25T03:54:33.654Z,1.33
2023-03-25T04:04:54.831Z,1.20
2023-03-25T04:15:16.609Z,1.20
2023-03-25T04:25:37.661Z,1.15
2023-03-25T04:36:02.344Z,1.13
2023-03-25T04:46:23.735Z,1.13
2023-03-25T04:56:45.121Z,1.02
2023-03-25T05:07:06.265Z,0.93
2023-03-25T05:17:29.975Z,1.00
2023-03-25T05:27:51.432Z,1.13
2023-03-25T05:38:18.970Z,0.88
2023-03-25T05:48:41.715Z,1.05
2023-03-25T05:59:03.775Z,1.10
2023-03-25T06:09:25.128Z,1.23
2023-03-25T06:19:46.124Z,1.05
2023-03-25T06:30:12.606Z,0.77
2023-03-25T06:40:35.466Z,0.82
2023-03-25T06:50:58.290Z,0.90
2023-03-25T07:01:19.790Z,1.08
2023-03-25T07:11:40.950Z,0.90
2023-03-25T07:22:02.287Z,1.00
2023-03-25T07:32:23.670Z,0.90
2023-03-25T07:42:45.886Z,1.00
2023-03-25T07:53:10.739Z,1.13
2023-03-25T08:03:32.349Z,0.90
2023-03-25T08:13:53.838Z,0.85
2023-03-25T08:24:15.597Z,0.95
2023-03-25T08:34:40.048Z,0.90
2023-03-25T08:45:01.470Z,0.85
2023-03-25T08:55:22.712Z,0.80
2023-03-25T09:05:44.021Z,0.85
2023-03-25T09:16:05.473Z,0.80
2023-03-25T09:26:27.394Z,0.93
2023-03-25T09:36:48.605Z,0.70
2023-03-25T09:47:14.862Z,0.60
2023-03-25T09:57:46.598Z,0.77
2023-03-25T10:08:16.800Z,1.33
2023-03-25T10:18:43.765Z,0.80
2023-03-25T10:29:10.372Z,0.70
2023-03-25T10:39:40.240Z,0.90
2023-03-25T10:50:01.894Z,0.70
2023-03-25T11:00:26.460Z,0.80
2023-03-25T11:10:49.734Z,0.50
2023-03-25T11:21:14.822Z,0.70
2023-03-25T11:31:37.729Z,0.63
2023-03-25T11:41:59.253Z,0.70
2023-03-25T11:52:25.394Z,0.85
2023-03-25T12:02:46.938Z,0.77
2023-03-25T12:13:32.750Z,0.90
2023-03-25T12:24:22.452Z,1.00
2023-03-25T12:35:21.291Z,0.73
2023-03-25T12:46:00.299Z,0.90
2023-03-25T12:56:33.419Z,1.08
2023-03-25T13:07:04.496Z,0.95
2023-03-25T13:17:30.316Z,0.85
2023-03-25T13:27:53.436Z,1.03
2023-03-25T13:38:27.416Z,0.70
2023-03-25T13:49:03.673Z,0.90
2023-03-25T13:59:26.188Z,0.52
2023-03-25T14:10:09.399Z,0.80
2023-03-25T14:20:34.858Z,0.82
2023-03-25T14:31:17.021Z,0.50
2023-03-25T14:42:04.027Z,0.88
2023-03-25T14:52:46.945Z,0.80
2023-03-25T15:03:16.745Z,0.75
2023-03-25T15:13:53.588Z,0.80
2023-03-25T15:24:17.041Z,0.60
2023-03-25T15:34:56.931Z,0.60
2023-03-25T15:45:38.936Z,0.50
2023-03-25T15:56:14.228Z,0.70
2023-03-25T16:06:42.159Z,0.63
2023-03-25T16:17:05.910Z,0.70
2023-03-25T16:27:32.215Z,0.60
2023-03-25T16:38:00.135Z,0.70
2023-03-25T16:48:31.968Z,0.70
2023-03-25T16:59:26.273Z,0.75
2023-03-25T17:09:51.736Z,0.50
2023-03-25T17:20:23.528Z,0.70
2023-03-25T17:30:46.226Z,0.60
2023-03-25T17:41:09.284Z,0.80
2023-03-25T17:51:31.356Z,0.70
2023-03-25T18:01:52.899Z,0.85
2023-03-25T18:12:14.207Z,0.70
2023-03-25T18:22:35.688Z,0.80
2023-03-25T18:32:57.073Z,0.70
2023-03-25T18:43:18.848Z,0.82
2023-03-25T18:53:41.191Z,0.90
2023-03-25T19:04:02.663Z,0.77
2023-03-25T19:14:24.084Z,0.73
2023-03-25T19:24:47.114Z,0.85
2023-03-25T19:35:10.579Z,0.90
2023-03-25T19:45:32.777Z,0.98
2023-03-25T19:55:55.171Z,1.00
2023-03-25T20:06:16.988Z,0.80
2023-03-25T20:16:38.897Z,1.45
2023-03-25T20:27:00.026Z,1.15
2023-03-25T20:37:21.239Z,1.30
2023-03-25T20:47:43.274Z,1.20
2023-03-25T20:58:04.944Z,1.10
2023-03-25T21:08:30.512Z,1.23
2023-03-25T21:18:52.943Z,1.40
2023-03-25T21:29:14.017Z,0.93
2023-03-25T21:39:35.741Z,1.33
2023-03-25T21:49:56.926Z,1.13
2023-03-25T22:00:19.970Z,1.13
2023-03-25T22:10:41.386Z,0.80
2023-03-25T22:21:08.473Z,0.90
2023-03-25T22:31:31.941Z,1.00
2023-03-25T22:41:53.777Z,1.10
2023-03-25T22:52:14.764Z,1.00
2023-03-25T23:02:35.869Z,0.90
2023-03-25T23:12:57.218Z,0.82
2023-03-25T23:23:22.368Z,0.82
2023-03-25T23:33:43.963Z,1.05
2023-03-25T23:44:05.968Z,1.10
2023-03-25T23:54:27.842Z,0.90
